createdAt,value
2022-09-01T00:01:27.623Z,84.38
2022-09-01T00:02:59.915Z,84.61
2022-09-01T00:04:32.525Z,84.74
2022-09-01T00:06:10.600Z,84.65
2022-09-01T00:07:42.840Z,84.32
2022-09-01T00:09:17.432Z,84.34
2022-09-01T00:10:49.771Z,84.78
2022-09-01T00:12:23.082Z,84.71
2022-09-01T00:13:56.857Z,84.57
2022-09-01T00:15:28.984Z,84.28
2022-09-01T00:17:03.752Z,84.46
2022-09-01T00:18:36.449Z,84.59
2022-09-01T00:20:09.609Z,84.82
2022-09-01T00:21:44.330Z,84.79
2022-09-01T00:23:16.467Z,84.92
2022-09-01T00:24:48.765Z,84.95
2022-09-01T00:26:21.222Z,84.83
2022-09-01T00:27:53.439Z,84.79
2022-09-01T00:29:26.120Z,84.69
2022-09-01T00:30:59.043Z,84.55
2022-09-01T00:32:31.088Z,84.63
2022-09-01T00:34:03.907Z,84.63
2022-09-01T00:35:37.303Z,84.80
2022-09-01T00:37:09.708Z,84.88
2022-09-01T00:38:41.941Z,84.91
2022-09-01T00:40:16.795Z,85.16
2022-09-01T00:41:51.082Z,85.25
2022-09-01T00:43:56.790Z,85.00
2022-09-01T00:45:31.083Z,84.98
2022-09-01T00:47:03.527Z,84.88
2022-09-01T00:48:36.172Z,84.92
2022-09-01T00:50:11.777Z,84.91
2022-09-01T00:51:48.502Z,84.75
2022-09-01T00:53:20.743Z,85.13
2022-09-01T00:54:55.773Z,84.99
2022-09-01T00:56:28.399Z,84.99
2022-09-01T00:58:02.086Z,85.05
2022-09-01T00:59:35.130Z,84.99
2022-09-01T01:01:09.353Z,84.71
2022-09-01T01:02:42.228Z,84.58
2022-09-01T01:04:17.112Z,84.86
2022-09-01T01:05:54.645Z,84.48
2022-09-01T01:07:27.996Z,84.29
2022-09-01T01:09:00.715Z,83.96
2022-09-01T01:10:36.221Z,84.04
2022-09-01T01:12:12.145Z,84.04
2022-09-01T01:13:54.984Z,84.00
2022-09-01T01:15:27.160Z,84.32
2022-09-01T01:17:00.470Z,84.27
2022-09-01T01:18:32.614Z,84.37
2022-09-01T01:20:24.854Z,84.61
2022-09-01T01:22:15.612Z,85.10
2022-09-01T01:24:25.700Z,85.29
2022-09-01T01:25:59.746Z,85.29
2022-09-01T01:27:42.791Z,85.44
2022-09-01T01:29:16.025Z,85.35
2022-09-01T01:30:53.843Z,85.71
2022-09-01T01:32:26.860Z,85.51
2022-09-01T01:33:59.546Z,85.27
2022-09-01T01:35:32.386Z,85.29
2022-09-01T01:37:04.404Z,85.15
2022-09-01T01:38:37.037Z,84.90
2022-09-01T01:40:15.998Z,84.47
2022-09-01T01:41:51.308Z,84.51
2022-09-01T01:43:24.492Z,84.94
2022-09-01T01:44:56.607Z,85.22
2022-09-01T01:52:58.255Z,84.70
2022-09-01T01:54:32.774Z,84.22
2022-09-01T01:56:06.498Z,84.51
2022-09-01T01:57:50.470Z,84.20
2022-09-01T01:59:25.090Z,84.27
2022-09-01T02:00:58.906Z,84.13
2022-09-01T02:02:31.972Z,84.30
2022-09-01T02:04:06.110Z,84.30
2022-09-01T02:05:38.125Z,84.35
2022-09-01T02:07:12.352Z,84.41
2022-09-01T02:08:44.684Z,84.52
2022-09-01T02:10:17.265Z,84.46
2022-09-01T02:11:52.180Z,84.76
2022-09-01T02:13:28.861Z,84.69
2022-09-01T02:15:01.282Z,84.60
2022-09-01T02:16:34.283Z,84.66
2022-09-01T02:18:06.670Z,84.30
2022-09-01T02:19:42.503Z,84.51
2022-09-01T02:21:19.841Z,84.65
2022-09-01T02:22:55.153Z,85.01
2022-09-01T02:24:31.295Z,85.17
2022-09-01T02:27:35.770Z,84.99
2022-09-01T02:29:18.265Z,84.87
2022-09-01T02:30:55.407Z,85.08
2022-09-01T02:32:27.436Z,85.37
2022-09-01T02:33:59.485Z,84.98
2022-09-01T02:35:32.193Z,85.04
2022-09-01T02:37:04.808Z,85.01
2022-09-01T02:38:36.989Z,84.38
2022-09-01T02:40:11.342Z,84.22
2022-09-01T02:41:43.635Z,84.53
2022-09-01T02:43:19.872Z,84.54
2022-09-01T02:44:51.915Z,84.35
2022-09-01T02:46:24.546Z,84.34
2022-09-01T02:47:57.847Z,84.66
2022-09-01T02:49:30.471Z,85.06
2022-09-01T02:51:08.680Z,85.00
2022-09-01T02:52:40.783Z,85.01
2022-09-01T02:54:17.104Z,85.24
2022-09-01T02:55:49.195Z,84.80
2022-09-01T02:57:25.244Z,84.74
2022-09-01T02:58:57.319Z,85.02
2022-09-01T03:02:13.169Z,85.22
2022-09-01T03:03:45.385Z,85.16
2022-09-01T03:05:25.529Z,85.48
2022-09-01T03:06:59.112Z,85.16
2022-09-01T03:08:36.944Z,84.66
2022-09-01T03:10:10.032Z,84.76
2022-09-01T03:11:47.197Z,84.55
2022-09-01T03:13:23.032Z,84.66
2022-09-01T03:14:55.129Z,84.73
2022-09-01T03:16:27.453Z,84.76
2022-09-01T03:18:01.225Z,84.65
2022-09-01T03:19:44.706Z,84.90
2022-09-01T03:21:17.704Z,84.62
2022-09-01T03:22:51.646Z,84.70
2022-09-01T03:24:23.874Z,84.79
2022-09-01T03:25:56.319Z,84.62
2022-09-01T03:27:28.349Z,84.65
2022-09-01T03:29:00.466Z,84.86
2022-09-01T03:30:34.443Z,84.68
2022-09-01T03:32:06.819Z,84.54
2022-09-01T03:33:39.070Z,85.02
2022-09-01T03:35:12.133Z,84.54
2022-09-01T03:36:50.677Z,84.46
2022-09-01T03:38:24.725Z,84.37
2022-09-01T03:39:58.164Z,84.67
2022-09-01T03:41:31.907Z,85.08
2022-09-01T03:43:06.357Z,85.09
2022-09-01T03:44:40.664Z,85.12
2022-09-01T03:46:18.281Z,84.94
2022-09-01T03:47:50.453Z,85.00
2022-09-01T03:49:28.045Z,85.04
2022-09-01T03:51:03.194Z,85.00
2022-09-01T03:52:35.356Z,85.08
2022-09-01T03:54:07.702Z,84.89
2022-09-01T03:55:40.976Z,84.83
2022-09-01T03:57:13.932Z,84.97
2022-09-01T03:58:47.614Z,85.27
2022-09-01T04:00:23.639Z,84.85
2022-09-01T04:01:57.830Z,84.52
2022-09-01T04:03:32.665Z,84.60
2022-09-01T04:05:08.357Z,84.80
2022-09-01T04:06:43.577Z,84.94
2022-09-01T04:08:15.671Z,84.79
2022-09-01T04:09:47.779Z,84.93
2022-09-01T04:11:24.472Z,84.97
2022-09-01T04:12:59.518Z,84.78
2022-09-01T04:14:31.614Z,84.73
2022-09-01T04:16:11.020Z,84.71
2022-09-01T04:18:09.773Z,85.03
2022-09-01T04:19:43.615Z,85.10
2022-09-01T04:21:15.690Z,85.21
2022-09-01T04:22:49.133Z,85.29
2022-09-01T04:24:24.475Z,85.42
2022-09-01T04:26:01.267Z,85.62
2022-09-01T04:27:34.185Z,85.53
2022-09-01T04:29:09.376Z,85.46
2022-09-01T04:30:42.716Z,85.58
2022-09-01T04:32:21.978Z,85.74
2022-09-01T04:33:54.249Z,85.81
2022-09-01T04:35:28.422Z,85.88
2022-09-01T04:37:00.477Z,85.71
2022-09-01T04:38:33.129Z,85.54
2022-09-01T04:40:05.791Z,85.88
2022-09-01T04:41:43.017Z,86.02
2022-09-01T04:43:15.324Z,85.78
2022-09-01T04:44:49.056Z,85.96
2022-09-01T04:46:21.511Z,86.11
2022-09-01T04:47:54.024Z,86.16
2022-09-01T04:49:27.505Z,86.17
2022-09-01T04:50:59.895Z,85.75
2022-09-01T04:52:32.373Z,86.13
2022-09-01T04:54:08.461Z,86.48
2022-09-01T04:55:45.108Z,86.82
2022-09-01T04:57:17.470Z,86.82
2022-09-01T04:58:56.804Z,87.26
2022-09-01T05:00:32.795Z,87.38
2022-09-01T05:02:09.866Z,87.44
2022-09-01T05:03:42.351Z,87.49
2022-09-01T05:05:15.145Z,87.56
2022-09-01T05:06:51.682Z,87.38
2022-09-01T05:08:24.709Z,87.48
2022-09-01T05:10:01.064Z,87.54
2022-09-01T05:11:33.835Z,87.50
2022-09-01T05:13:10.408Z,87.51
2022-09-01T05:14:44.874Z,87.68
2022-09-01T05:16:25.011Z,87.66
2022-09-01T05:18:02.650Z,87.55
2022-09-01T05:19:35.348Z,87.63
2022-09-01T05:21:11.207Z,87.57
2022-09-01T05:22:43.292Z,87.63
2022-09-01T05:24:19.594Z,87.63
2022-09-01T05:25:56.196Z,87.65
2022-09-01T05:27:29.874Z,87.41
2022-09-01T05:29:04.825Z,87.23
2022-09-01T05:30:40.118Z,87.45
2022-09-01T05:32:13.157Z,87.37
2022-09-01T05:33:46.342Z,87.91
2022-09-01T05:35:19.084Z,88.05
2022-09-01T05:36:52.070Z,88.04
2022-09-01T05:38:25.981Z,88.25
2022-09-01T05:39:58.972Z,88.05
2022-09-01T05:41:31.398Z,87.96
2022-09-01T05:43:03.566Z,87.88
2022-09-01T05:44:36.793Z,88.32
2022-09-01T05:46:08.985Z,88.19
2022-09-01T05:47:42.234Z,88.04
2022-09-01T05:49:17.239Z,87.54
2022-09-01T05:50:50.029Z,87.90
2022-09-01T05:52:26.862Z,87.68
2022-09-01T05:54:02.333Z,87.40
2022-09-01T05:55:38.132Z,87.14
2022-09-01T05:57:33.139Z,87.17
2022-09-01T06:00:59.723Z,87.19
2022-09-01T06:02:34.262Z,87.07
2022-09-01T06:04:06.743Z,86.70
2022-09-01T06:05:38.881Z,86.54
2022-09-01T06:07:16.545Z,86.38
2022-09-01T06:08:52.632Z,85.98
2022-09-01T06:10:25.229Z,86.15
2022-09-01T06:11:57.346Z,85.60
2022-09-01T06:13:29.518Z,85.97
2022-09-01T06:15:03.287Z,85.94
2022-09-01T06:16:36.482Z,85.99
2022-09-01T06:18:09.632Z,85.15
2022-09-01T06:19:44.149Z,85.24
2022-09-01T06:21:17.660Z,85.50
2022-09-01T06:22:50.283Z,85.33
2022-09-01T06:24:22.379Z,85.46
2022-09-01T06:25:55.675Z,84.86
2022-09-01T06:27:27.661Z,84.81
2022-09-01T06:29:03.805Z,84.96
2022-09-01T06:30:36.826Z,84.85
2022-09-01T06:32:13.447Z,84.51
2022-09-01T06:33:46.172Z,83.72
2022-09-01T06:35:18.526Z,83.95
2022-09-01T06:36:53.023Z,83.55
2022-09-01T06:38:30.183Z,83.67
2022-09-01T06:40:03.916Z,82.58
2022-09-01T06:41:38.151Z,82.47
2022-09-01T06:43:12.825Z,81.58
2022-09-01T06:44:46.371Z,81.78
2022-09-01T06:46:20.395Z,81.43
2022-09-01T06:47:57.625Z,81.95
2022-09-01T06:49:35.289Z,81.62
2022-09-01T06:51:19.651Z,81.74
2022-09-01T06:54:58.142Z,79.34
2022-09-01T06:56:32.399Z,77.95
2022-09-01T06:58:08.883Z,77.03
2022-09-01T06:59:41.068Z,77.15
2022-09-01T07:01:17.004Z,77.29
2022-09-01T07:02:55.146Z,78.00
2022-09-01T07:04:29.849Z,78.62
2022-09-01T07:06:06.181Z,78.29
2022-09-01T07:07:54.295Z,79.35
2022-09-01T07:13:25.725Z,77.78
2022-09-01T07:17:22.359Z,77.40
2022-09-01T07:18:57.990Z,76.55
2022-09-01T07:20:31.793Z,75.38
2022-09-01T07:22:07.004Z,75.27
2022-09-01T07:24:05.884Z,73.24
2022-09-01T07:26:00.376Z,73.85
2022-09-01T07:29:23.108Z,74.22
2022-09-01T07:30:56.857Z,74.80
2022-09-01T07:32:47.334Z,76.25
2022-09-01T07:36:29.070Z,75.85
2022-09-01T07:38:48.480Z,75.17
2022-09-01T07:39:56.461Z,75.06
2022-09-01T07:43:27.295Z,74.65
2022-09-01T07:49:29.296Z,75.81
2022-09-01T07:52:50.220Z,74.46
2022-09-01T07:54:24.425Z,74.03
2022-09-01T07:55:57.626Z,73.37
2022-09-01T07:57:29.806Z,73.53
2022-09-01T07:59:02.618Z,74.40
2022-09-01T08:00:35.653Z,73.67
2022-09-01T08:02:08.298Z,73.22
2022-09-01T08:03:41.708Z,73.19
2022-09-01T08:05:18.328Z,74.10
2022-09-01T08:06:50.518Z,72.38
2022-09-01T08:08:27.927Z,72.31
2022-09-01T08:10:01.955Z,71.13
2022-09-01T08:12:01.708Z,72.58
2022-09-01T08:13:29.095Z,72.20
2022-09-01T08:15:37.939Z,72.17
2022-09-01T08:16:58.638Z,70.79
2022-09-01T08:18:48.144Z,70.66
2022-09-01T08:20:22.631Z,70.71
2022-09-01T08:21:54.966Z,70.83
2022-09-01T08:23:27.618Z,69.43
2022-09-01T08:25:00.015Z,70.22
2022-09-01T08:26:33.035Z,71.28
2022-09-01T08:28:05.926Z,70.25
2022-09-01T08:29:38.121Z,69.85
2022-09-01T08:31:13.320Z,69.68
2022-09-01T08:34:22.253Z,68.50
2022-09-01T08:35:54.541Z,67.18
2022-09-01T08:37:27.045Z,68.54
2022-09-01T08:38:59.306Z,68.24
2022-09-01T08:40:31.843Z,66.14
2022-09-01T08:42:27.101Z,65.81
2022-09-01T08:44:30.229Z,66.70
2022-09-01T08:46:10.933Z,66.41
2022-09-01T08:48:04.719Z,65.64
2022-09-01T08:49:44.528Z,65.07
2022-09-01T08:51:45.782Z,65.08
2022-09-01T08:53:40.758Z,64.48
2022-09-01T08:55:26.192Z,65.77
2022-09-01T08:57:02.677Z,66.25
2022-09-01T08:58:35.541Z,65.97
2022-09-01T09:00:11.741Z,64.92
2022-09-01T09:02:35.204Z,65.82
2022-09-01T09:04:22.259Z,67.71
2022-09-01T09:06:16.008Z,65.62
2022-09-01T09:09:39.248Z,66.27
2022-09-01T09:11:23.780Z,65.90
2022-09-01T09:13:03.007Z,67.08
2022-09-01T09:14:35.453Z,66.23
2022-09-01T09:16:12.311Z,65.68
2022-09-01T09:17:59.509Z,64.13
2022-09-01T09:19:36.261Z,66.19
2022-09-01T09:21:36.607Z,65.54
2022-09-01T09:23:22.291Z,64.43
2022-09-01T09:25:08.444Z,65.69
2022-09-01T09:26:44.751Z,66.68
2022-09-01T09:28:17.413Z,66.60
2022-09-01T09:29:52.795Z,64.12
2022-09-01T09:31:31.357Z,64.50
2022-09-01T09:35:19.839Z,63.14
2022-09-01T09:36:55.354Z,62.24
2022-09-01T09:38:33.293Z,62.75
2022-09-01T09:40:22.631Z,61.31
2022-09-01T09:42:10.004Z,60.77
2022-09-01T09:44:00.660Z,63.48
2022-09-01T09:45:42.481Z,63.60
2022-09-01T09:47:46.080Z,63.85
2022-09-01T09:49:36.320Z,62.55
2022-09-01T09:51:22.498Z,62.16
2022-09-01T09:53:16.343Z,62.38
2022-09-01T09:55:17.974Z,61.32
2022-09-01T09:57:05.514Z,60.73
2022-09-01T09:58:43.345Z,60.64
2022-09-01T10:00:27.027Z,63.42
2022-09-01T10:02:00.581Z,64.08
2022-09-01T10:03:37.730Z,62.31
2022-09-01T10:05:39.033Z,60.53
2022-09-01T10:07:31.829Z,61.46
2022-09-01T10:09:09.692Z,62.53
2022-09-01T10:10:57.512Z,62.10
2022-09-01T10:12:31.343Z,60.97
2022-09-01T10:14:07.462Z,63.38
2022-09-01T10:15:41.314Z,63.82
2022-09-01T10:17:18.934Z,62.83
2022-09-01T10:18:52.882Z,62.99
2022-09-01T10:20:26.769Z,62.26
2022-09-01T10:21:59.226Z,60.96
2022-09-01T10:23:33.310Z,62.11
2022-09-01T10:25:10.071Z,61.21
2022-09-01T10:26:43.621Z,61.42
2022-09-01T10:28:20.817Z,63.78
2022-09-01T10:30:20.746Z,60.47
2022-09-01T10:32:14.888Z,61.21
2022-09-01T10:33:47.352Z,61.06
2022-09-01T10:35:31.107Z,59.92
2022-09-01T10:37:10.218Z,60.24
2022-09-01T10:38:50.410Z,60.78
2022-09-01T10:40:33.682Z,59.50
2022-09-01T10:42:19.607Z,59.99
2022-09-01T10:43:52.504Z,60.17
2022-09-01T10:45:34.174Z,62.27
2022-09-01T10:47:33.990Z,61.69
2022-09-01T10:49:25.222Z,61.69
2022-09-01T10:51:28.867Z,61.38
2022-09-01T10:53:08.533Z,60.39
2022-09-01T10:54:51.003Z,61.34
2022-09-01T10:56:44.284Z,61.10
2022-09-01T11:00:37.304Z,57.27
2022-09-01T11:02:25.982Z,57.43
2022-09-01T11:03:59.279Z,59.62
2022-09-01T11:06:17.709Z,59.08
2022-09-01T11:08:15.222Z,59.15
2022-09-01T11:09:45.141Z,59.79
2022-09-01T11:13:09.187Z,56.42
2022-09-01T11:14:59.526Z,56.94
2022-09-01T11:16:53.408Z,59.58
2022-09-01T11:18:29.210Z,58.40
2022-09-01T11:20:11.095Z,58.42
2022-09-01T11:21:43.696Z,57.31
2022-09-01T11:23:31.876Z,59.77
2022-09-01T11:25:38.593Z,60.21
2022-09-01T11:27:13.804Z,58.80
2022-09-01T11:28:46.628Z,59.11
2022-09-01T11:30:19.833Z,58.57
2022-09-01T11:31:53.003Z,58.20
2022-09-01T11:33:34.133Z,57.28
2022-09-01T11:35:14.245Z,58.96
2022-09-01T11:36:48.563Z,58.40
2022-09-01T11:38:21.525Z,59.69
2022-09-01T11:39:56.745Z,59.03
2022-09-01T11:41:34.337Z,58.05
2022-09-01T11:43:16.828Z,56.36
2022-09-01T11:44:54.021Z,56.01
2022-09-01T11:46:30.487Z,57.01
2022-09-01T11:48:08.633Z,57.30
2022-09-01T11:49:49.573Z,58.97
2022-09-01T11:51:21.975Z,59.86
2022-09-01T11:53:04.511Z,59.38
2022-09-01T11:54:41.506Z,60.92
2022-09-01T11:56:20.822Z,61.28
2022-09-01T11:57:53.370Z,60.55
2022-09-01T11:59:34.005Z,60.89
2022-09-01T12:01:20.613Z,57.26
2022-09-01T12:02:55.354Z,60.04
2022-09-01T12:04:37.318Z,60.28
2022-09-01T12:06:12.244Z,59.94
2022-09-01T12:07:46.719Z,59.09
2022-09-01T12:09:19.515Z,56.80
2022-09-01T12:10:52.124Z,56.28
2022-09-01T12:12:32.568Z,57.90
2022-09-01T12:14:11.430Z,59.15
2022-09-01T12:16:06.919Z,59.42
2022-09-01T12:17:37.685Z,58.27
2022-09-01T12:19:26.590Z,58.05
2022-09-01T12:21:00.722Z,57.47
2022-09-01T12:22:33.106Z,57.31
2022-09-01T12:24:23.433Z,57.75
2022-09-01T12:25:58.360Z,56.78
2022-09-01T12:27:30.767Z,57.85
2022-09-01T12:29:03.290Z,58.79
2022-09-01T12:30:40.113Z,59.29
2022-09-01T12:32:13.042Z,59.38
2022-09-01T12:33:46.167Z,59.71
2022-09-01T12:35:23.443Z,58.72
2022-09-01T12:37:09.854Z,57.97
2022-09-01T12:38:42.251Z,57.07
2022-09-01T12:40:43.745Z,57.17
2022-09-01T12:42:21.879Z,58.09
2022-09-01T12:43:54.949Z,58.65
2022-09-01T12:45:48.395Z,58.55
2022-09-01T12:47:38.227Z,58.46
2022-09-01T12:49:28.565Z,58.51
2022-09-01T12:51:26.535Z,58.16
2022-09-01T12:53:05.843Z,59.37
2022-09-01T12:54:38.711Z,59.56
2022-09-01T12:56:29.018Z,59.43
2022-09-01T12:58:04.205Z,58.60
2022-09-01T12:59:37.429Z,57.58
2022-09-01T13:01:25.443Z,55.66
2022-09-01T13:04:50.272Z,56.33
2022-09-01T13:06:22.600Z,55.97
2022-09-01T13:08:00.001Z,56.40
2022-09-01T13:09:32.875Z,55.89
2022-09-01T13:11:13.968Z,55.78
2022-09-01T13:12:46.336Z,55.69
2022-09-01T13:14:19.427Z,56.66
2022-09-01T13:15:53.465Z,56.84
2022-09-01T13:17:25.607Z,57.17
2022-09-01T13:19:12.869Z,56.71
2022-09-01T13:20:45.334Z,56.42
2022-09-01T13:22:17.681Z,55.57
2022-09-01T13:23:51.034Z,56.16
2022-09-01T13:25:24.670Z,56.70
2022-09-01T13:28:51.422Z,57.72
2022-09-01T13:35:42.685Z,58.79
2022-09-01T13:37:15.679Z,58.80
2022-09-01T13:38:50.649Z,59.38
2022-09-01T13:40:27.484Z,59.41
2022-09-01T13:41:59.838Z,59.33
2022-09-01T13:43:32.540Z,59.39
2022-09-01T13:45:07.457Z,58.07
2022-09-01T13:50:28.158Z,56.37
2022-09-01T13:52:20.321Z,56.92
2022-09-01T13:53:53.380Z,56.67
2022-09-01T13:55:29.682Z,55.41
2022-09-01T13:57:02.037Z,56.36
2022-09-01T13:58:34.409Z,57.34
2022-09-01T14:00:11.283Z,57.58
2022-09-01T14:01:43.877Z,58.12
2022-09-01T14:03:21.720Z,58.02
2022-09-01T14:04:54.138Z,58.00
2022-09-01T14:06:26.748Z,57.65
2022-09-01T14:08:00.214Z,57.02
2022-09-01T14:09:32.947Z,57.06
2022-09-01T14:11:05.418Z,57.49
2022-09-01T14:12:38.236Z,57.47
2022-09-01T14:14:10.781Z,58.10
2022-09-01T14:15:45.055Z,58.43
2022-09-01T14:17:17.699Z,58.02
2022-09-01T14:18:49.882Z,58.36
2022-09-01T14:20:25.023Z,58.61
2022-09-01T14:21:57.737Z,58.78
2022-09-01T14:23:30.146Z,58.69
2022-09-01T14:25:02.567Z,58.33
2022-09-01T14:26:35.331Z,58.35
2022-09-01T14:28:07.727Z,58.36
2022-09-01T14:31:12.779Z,57.87
2022-09-01T14:32:45.440Z,57.63
2022-09-01T14:34:19.495Z,57.31
2022-09-01T14:35:51.868Z,57.68
2022-09-01T14:37:24.456Z,57.22
2022-09-01T14:38:56.822Z,57.10
2022-09-01T14:40:29.556Z,57.54
2022-09-01T14:42:02.111Z,57.37
2022-09-01T14:43:34.595Z,57.42
2022-09-01T14:45:07.454Z,57.01
2022-09-01T14:46:40.434Z,57.02
2022-09-01T14:48:13.120Z,57.74
2022-09-01T14:49:45.723Z,58.58
2022-09-01T14:53:34.449Z,58.43
2022-09-01T14:55:07.623Z,58.99
2022-09-01T14:56:40.464Z,59.94
2022-09-01T14:58:13.772Z,60.33
2022-09-01T14:59:45.924Z,60.48
2022-09-01T15:01:33.576Z,61.10
2022-09-01T15:03:10.256Z,61.16
2022-09-01T15:04:42.845Z,60.92
2022-09-01T15:06:17.115Z,62.16
2022-09-01T15:07:50.218Z,62.29
2022-09-01T15:09:22.622Z,61.93
2022-09-01T15:10:55.053Z,61.61
2022-09-01T15:12:31.497Z,62.09
2022-09-01T15:14:04.293Z,61.97
2022-09-01T15:15:36.931Z,61.64
2022-09-01T15:17:09.498Z,60.45
2022-09-01T15:18:42.075Z,59.96
2022-09-01T15:20:32.850Z,59.55
2022-09-01T15:22:07.262Z,58.97
2022-09-01T15:23:39.570Z,58.79
2022-09-01T15:25:11.991Z,58.48
2022-09-01T15:26:47.029Z,58.43
2022-09-01T15:28:23.045Z,58.88
2022-09-01T15:29:56.376Z,59.28
2022-09-01T15:31:32.358Z,59.58
2022-09-01T15:33:06.423Z,59.39
2022-09-01T15:34:39.437Z,59.37
2022-09-01T15:36:17.329Z,59.63
2022-09-01T15:37:51.033Z,58.90
2022-09-01T15:39:23.496Z,59.21
2022-09-01T15:40:58.452Z,59.55
2022-09-01T15:42:31.579Z,59.78
2022-09-01T15:44:07.450Z,59.96
2022-09-01T15:45:40.003Z,59.70
2022-09-01T15:47:12.550Z,59.98
2022-09-01T15:48:45.138Z,60.07
2022-09-01T15:50:21.941Z,60.00
2022-09-01T15:51:57.650Z,59.75
2022-09-01T15:53:30.278Z,59.66
2022-09-01T15:55:04.166Z,59.44
2022-09-01T15:56:37.204Z,59.48
2022-09-01T15:58:11.050Z,59.71
2022-09-01T15:59:43.676Z,59.95
2022-09-01T16:01:18.968Z,60.19
2022-09-01T16:04:27.709Z,60.45
2022-09-01T16:06:03.177Z,60.61
2022-09-01T16:07:35.822Z,60.82
2022-09-01T16:09:09.150Z,61.04
2022-09-01T16:10:42.876Z,61.02
2022-09-01T16:12:15.350Z,62.06
2022-09-01T16:13:47.739Z,62.51
2022-09-01T16:15:22.767Z,62.92
2022-09-01T16:17:10.975Z,63.64
2022-09-01T16:18:53.105Z,64.78
2022-09-01T16:21:10.713Z,65.83
2022-09-01T16:22:56.142Z,66.33
2022-09-01T16:24:28.666Z,66.50
2022-09-01T16:26:00.883Z,66.15
2022-09-01T16:27:51.053Z,65.52
2022-09-01T16:29:42.076Z,65.66
2022-09-01T16:31:35.659Z,65.42
2022-09-01T16:33:21.110Z,65.66
2022-09-01T16:34:53.481Z,65.75
2022-09-01T16:38:47.577Z,67.32
2022-09-01T16:40:38.287Z,67.85
2022-09-01T16:42:13.915Z,68.76
2022-09-01T16:44:05.109Z,69.80
2022-09-01T16:46:07.953Z,69.25
2022-09-01T16:47:49.775Z,69.52
2022-09-01T16:49:42.065Z,69.69
2022-09-01T16:51:22.429Z,70.33
2022-09-01T16:53:01.520Z,70.18
2022-09-01T16:54:47.047Z,70.11
2022-09-01T16:56:32.223Z,70.13
2022-09-01T16:58:10.914Z,69.77
2022-09-01T16:59:52.039Z,70.50
2022-09-01T17:01:57.465Z,70.40
2022-09-01T17:03:43.077Z,69.86
2022-09-01T17:05:22.142Z,70.49
2022-09-01T17:07:19.386Z,70.63
2022-09-01T17:08:56.119Z,70.83
2022-09-01T17:10:45.636Z,71.77
2022-09-01T17:12:28.433Z,72.06
2022-09-01T17:14:03.519Z,72.23
2022-09-01T17:15:41.497Z,71.75
2022-09-01T17:17:18.603Z,71.86
2022-09-01T17:18:55.687Z,71.66
2022-09-01T17:20:30.607Z,71.67
2022-09-01T17:22:08.412Z,71.35
2022-09-01T17:23:46.975Z,71.41
2022-09-01T17:25:33.536Z,72.13
2022-09-01T17:27:21.700Z,72.69
2022-09-01T17:29:01.157Z,73.29
2022-09-01T17:30:35.765Z,72.94
2022-09-01T17:32:20.055Z,73.26
2022-09-01T17:34:31.133Z,73.45
2022-09-01T17:36:16.028Z,73.32
2022-09-01T17:38:06.791Z,73.63
2022-09-01T17:39:55.805Z,73.84
2022-09-01T17:41:41.742Z,74.16
2022-09-01T17:43:46.519Z,73.98
2022-09-01T17:45:31.076Z,74.19
2022-09-01T17:47:40.065Z,74.25
2022-09-01T17:49:21.782Z,74.51
2022-09-01T17:51:12.522Z,74.47
2022-09-01T17:53:10.391Z,74.66
2022-09-01T17:54:59.162Z,74.83
2022-09-01T17:56:52.284Z,75.06
2022-09-01T17:58:53.345Z,76.49
2022-09-01T18:00:28.741Z,77.69
2022-09-01T18:03:51.886Z,79.28
2022-09-01T18:05:25.042Z,79.86
2022-09-01T18:07:03.980Z,80.60
2022-09-01T18:08:45.888Z,81.39
2022-09-01T18:10:47.053Z,82.00
2022-09-01T18:12:25.097Z,82.10
2022-09-01T18:14:08.016Z,83.17
2022-09-01T18:15:53.038Z,83.48
2022-09-01T18:17:33.940Z,83.43
2022-09-01T18:19:12.853Z,83.93
2022-09-01T18:20:47.754Z,83.84
2022-09-01T18:22:22.072Z,84.39
2022-09-01T18:24:00.454Z,84.36
2022-09-01T18:25:44.137Z,84.70
2022-09-01T18:27:16.218Z,84.12
2022-09-01T18:28:54.973Z,84.05
2022-09-01T18:30:51.751Z,83.30
2022-09-01T18:32:22.525Z,82.50
2022-09-01T18:34:17.274Z,81.73
2022-09-01T18:36:36.026Z,81.62
2022-09-01T18:38:26.654Z,82.97
2022-09-01T18:40:17.496Z,83.64
2022-09-01T18:42:08.850Z,83.14
2022-09-01T18:43:45.815Z,83.64
2022-09-01T18:45:44.056Z,84.03
2022-09-01T18:47:18.956Z,83.97
2022-09-01T18:49:11.122Z,84.46
2022-09-01T18:51:06.128Z,84.73
2022-09-01T18:52:49.124Z,84.30
2022-09-01T18:54:32.888Z,84.38
2022-09-01T18:56:21.546Z,84.98
2022-09-01T18:57:57.450Z,85.00
2022-09-01T19:00:16.915Z,84.89
2022-09-01T19:02:00.942Z,85.49
2022-09-01T19:03:44.442Z,85.44
2022-09-01T19:05:36.108Z,85.80
2022-09-01T19:07:27.226Z,85.91
2022-09-01T19:23:22.825Z,87.24
2022-09-01T19:25:20.034Z,87.40
2022-09-01T19:27:16.977Z,87.67
2022-09-01T19:29:01.508Z,88.02
2022-09-01T19:30:35.816Z,87.69
2022-09-01T19:32:09.982Z,87.19
2022-09-01T19:33:48.180Z,87.29
2022-09-01T19:35:20.801Z,87.21
2022-09-01T19:36:56.280Z,87.28
2022-09-01T19:38:29.316Z,87.38
2022-09-01T19:40:01.609Z,87.43
2022-09-01T19:42:13.626Z,86.95
2022-09-01T19:43:46.026Z,87.39
2022-09-01T19:45:34.879Z,87.27
2022-09-01T19:47:14.151Z,87.78
2022-09-01T19:48:58.489Z,87.87
2022-09-01T19:50:55.496Z,87.68
2022-09-01T19:52:39.693Z,87.97
2022-09-01T19:54:16.169Z,88.02
2022-09-01T19:56:02.191Z,88.06
2022-09-01T19:57:50.719Z,88.42
2022-09-01T19:59:48.607Z,88.43
2022-09-01T20:01:27.425Z,88.58
2022-09-01T20:03:12.898Z,88.69
2022-09-01T20:05:02.339Z,88.61
2022-09-01T20:06:36.593Z,88.32
2022-09-01T20:08:15.565Z,88.30
2022-09-01T20:09:54.542Z,88.46
2022-09-01T20:11:35.500Z,88.90
2022-09-01T20:13:37.757Z,88.84
2022-09-01T20:15:09.983Z,88.85
2022-09-01T20:16:45.483Z,88.84
2022-09-01T20:18:27.536Z,88.58
2022-09-01T20:20:21.086Z,88.90
2022-09-01T20:21:53.332Z,89.17
2022-09-01T20:23:33.325Z,88.73
2022-09-01T20:25:10.527Z,89.37
2022-09-01T20:27:02.791Z,89.18
2022-09-01T20:29:00.267Z,89.33
2022-09-01T20:30:45.453Z,89.21
2022-09-01T20:32:45.970Z,89.67
2022-09-01T20:34:53.392Z,89.35
2022-09-01T20:36:44.436Z,89.27
2022-09-01T20:39:10.513Z,89.37
2022-09-01T20:40:43.295Z,89.63
2022-09-01T20:42:20.042Z,89.63
2022-09-01T20:43:55.332Z,89.92
2022-09-01T20:45:28.847Z,89.96
2022-09-01T20:47:00.893Z,89.98
2022-09-01T20:48:40.626Z,90.22
2022-09-01T20:50:14.376Z,90.18
2022-09-01T20:52:28.047Z,89.88
2022-09-01T20:54:18.801Z,89.87
2022-09-01T20:56:06.158Z,89.87
2022-09-01T20:58:15.275Z,89.95
2022-09-01T20:59:54.215Z,90.20
2022-09-01T21:01:53.079Z,89.47
2022-09-01T21:03:35.314Z,89.92
2022-09-01T21:05:13.341Z,89.91
2022-09-01T21:07:02.135Z,89.95
2022-09-01T21:08:49.912Z,90.30
2022-09-01T21:10:38.083Z,90.23
2022-09-01T21:12:33.395Z,90.33
2022-09-01T21:14:08.000Z,90.32
2022-09-01T21:16:01.802Z,90.86
2022-09-01T21:17:41.720Z,90.64
2022-09-01T21:19:22.858Z,90.61
2022-09-01T21:21:07.653Z,90.53
2022-09-01T21:22:39.768Z,90.79
2022-09-01T21:24:11.793Z,90.41
2022-09-01T21:25:47.260Z,90.66
2022-09-01T21:27:23.680Z,90.33
2022-09-01T21:28:57.185Z,90.93
2022-09-01T21:30:34.331Z,90.59
2022-09-01T21:32:06.549Z,91.05
2022-09-01T21:33:38.719Z,91.04
2022-09-01T21:35:15.750Z,91.21
2022-09-01T21:36:47.791Z,90.93
2022-09-01T21:38:19.969Z,90.58
2022-09-01T21:39:53.917Z,90.73
2022-09-01T21:41:25.971Z,90.82
2022-09-01T21:43:07.253Z,91.16
2022-09-01T21:44:40.372Z,90.94
2022-09-01T21:46:14.928Z,90.78
2022-09-01T21:47:51.267Z,91.26
2022-09-01T21:49:23.465Z,90.84
2022-09-01T21:50:55.660Z,91.22
2022-09-01T21:52:31.159Z,90.59
2022-09-01T21:54:03.411Z,91.03
2022-09-01T21:55:36.449Z,91.06
2022-09-01T21:57:08.842Z,90.75
2022-09-01T21:58:40.981Z,90.68
2022-09-01T22:00:17.087Z,90.78
2022-09-01T22:01:52.850Z,90.77
2022-09-01T22:03:25.103Z,91.04
2022-09-01T22:04:57.173Z,90.75
2022-09-01T22:06:29.277Z,90.94
2022-09-01T22:08:01.849Z,90.56
2022-09-01T22:09:33.855Z,90.63
2022-09-01T22:11:10.217Z,90.80
2022-09-01T22:12:44.160Z,90.89
2022-09-01T22:14:16.457Z,90.47
2022-09-01T22:15:51.547Z,90.28
2022-09-01T22:17:23.771Z,90.59
2022-09-01T22:18:55.799Z,90.98
2022-09-01T22:20:32.106Z,90.74
2022-09-01T22:22:04.849Z,90.89
2022-09-01T22:23:37.738Z,90.98
2022-09-01T22:25:13.461Z,90.89
2022-09-01T22:26:46.422Z,90.77
2022-09-01T22:28:18.625Z,91.10